Time;durP1;ratioP1;P1;durP2;ratioP2;P2;SDS_P1;SDS_P2;PMS_P1;PMS_P2;Temp;Humidity;BMP_temperature;BMP_pressure;BME280_temperature;BME280_humidity;BME280_pressure;Samples;Min_cycle;Max_cycle;Signal;HPM_P1;HPM_P2
2021/07/28 00:02:01;;;;;;;18.02;10.55;;;;;;;18.14;65.30;99206.28;5051976;28;20102;-59
2021/07/28 00:04:27;;;;;;;15.80;9.90;;;;;;;18.10;65.69;99207.97;5051992;28;20044;-58
2021/07/28 00:06:53;;;;;;;20.02;10.60;;;;;;;18.07;65.38;99203.19;5051873;28;20075;-60
2021/07/28 00:09:18;;;;;;;20.25;9.73;;;;;;;18.12;65.34;99197.75;5017324;28;20541;-59
2021/07/28 00:11:47;;;;;;;17.02;8.88;;;;;;;18.13;65.32;99191.28;5050438;28;20044;-60
2021/07/28 00:14:13;;;;;;;18.77;9.10;;;;;;;18.19;65.28;99200.84;5050632;28;20048;-59
2021/07/28 00:16:39;;;;;;;19.88;8.98;;;;;;;18.21;65.19;99201.34;5050394;28;20045;-59
2021/07/28 00:24:16;;;;;;;16.63;9.00;;;;;;;18.17;65.02;99198.44;5050746;28;20041;-59
2021/07/28 00:26:42;;;;;;;16.63;8.65;;;;;;;18.25;64.92;99198.88;5051373;28;20513;-58
2021/07/28 00:29:08;;;;;;;18.40;8.45;;;;;;;18.31;64.78;99198.50;5051888;28;20204;-59
2021/07/28 00:31:33;;;;;;;24.48;8.65;;;;;;;18.34;64.70;99189.06;5051527;28;20049;-57
2021/07/28 00:33:59;;;;;;;20.67;9.27;;;;;;;18.41;64.62;99189.47;5050279;28;20379;-58
2021/07/28 00:36:25;;;;;;;26.13;9.52;;;;;;;18.46;64.52;99185.94;5051611;28;20041;-59
2021/07/28 00:38:51;;;;;;;24.20;9.32;;;;;;;18.49;64.10;99182.66;5051551;28;20076;-57
2021/07/28 00:41:16;;;;;;;29.17;12.57;;;;;;;18.51;64.42;99180.47;5051543;28;20048;-59
2021/07/28 00:43:42;;;;;;;29.08;13.25;;;;;;;18.49;64.56;99183.44;5051418;28;20045;-59
2021/07/28 00:46:08;;;;;;;33.03;18.48;;;;;;;18.46;64.69;99186.72;5051382;28;20044;-59
2021/07/28 00:48:35;;;;;;;34.03;22.70;;;;;;;18.42;64.93;99176.88;5051411;28;20494;-58
2021/07/28 00:51:01;;;;;;;39.33;21.95;;;;;;;18.38;64.73;99174.78;5050069;28;20041;-58
2021/07/28 00:53:27;;;;;;;35.92;20.13;;;;;;;18.36;65.08;99170.81;5050088;28;20133;-58
2021/07/28 00:55:54;;;;;;;39.22;20.45;;;;;;;18.37;65.31;99175.06;5051133;28;20049;-58
2021/07/28 00:58:31;;;;;;;35.70;20.48;;;;;;;18.35;65.36;99171.88;5051410;28;20136;-59
2021/07/28 01:00:56;;;;;;;28.17;16.23;;;;;;;18.34;65.63;99176.44;5050110;28;20133;-59
2021/07/28 01:03:22;;;;;;;32.45;16.52;;;;;;;18.32;65.82;99175.16;5053779;28;20127;-60
2021/07/28 01:05:48;;;;;;;32.13;14.30;;;;;;;18.32;65.98;99167.09;5053961;28;20536;-59
2021/07/28 01:08:15;;;;;;;24.65;12.95;;;;;;;18.30;65.98;99162.03;5055200;28;20102;-58
2021/07/28 01:10:41;;;;;;;31.73;11.75;;;;;;;18.26;66.00;99161.00;5053800;28;20045;-60
2021/07/28 01:13:08;;;;;;;31.05;10.20;;;;;;;18.22;66.19;99161.91;5055272;28;20463;-59
2021/07/28 01:15:40;;;;;;;27.15;9.93;;;;;;;18.15;66.41;99157.72;5053751;28;20076;-59
2021/07/28 01:18:08;;;;;;;32.88;9.88;;;;;;;18.12;66.63;99160.97;5053628;28;20111;-58
2021/07/28 01:20:40;;;;;;;22.17;9.32;;;;;;;18.07;66.65;99163.75;5054756;28;20509;-59
2021/07/28 01:23:11;;;;;;;27.83;9.70;;;;;;;18.02;66.72;99169.19;5053567;28;20040;-58
2021/07/28 01:25:37;;;;;;;17.15;9.32;;;;;;;18.00;67.10;99162.50;5036955;28;20435;-58
2021/07/28 01:28:03;;;;;;;19.17;8.82;;;;;;;17.97;66.84;99155.88;5053672;28;20045;-59
2021/07/28 01:30:30;;;;;;;20.13;9.10;;;;;;;17.95;66.98;99158.03;5054602;28;20045;-59
2021/07/28 01:32:56;;;;;;;18.27;9.32;;;;;;;17.97;67.06;99150.50;5054600;28;20132;-59
2021/07/28 01:35:23;;;;;;;22.67;9.20;;;;;;;17.99;66.92;99156.34;5036775;28;20045;-60
2021/07/28 01:37:48;;;;;;;15.38;8.60;;;;;;;18.06;66.45;99153.28;5053124;28;20056;-59
2021/07/28 01:40:14;;;;;;;17.85;8.68;;;;;;;18.13;66.45;99148.38;5053238;28;20045;-60
2021/07/28 01:42:44;;;;;;;13.75;8.32;;;;;;;18.22;65.91;99148.50;5054307;28;20399;-60
2021/07/28 01:45:11;;;;;;;14.88;8.63;;;;;;;18.30;65.79;99143.25;5036593;28;20041;-58
2021/07/28 01:47:38;;;;;;;15.20;8.57;;;;;;;18.37;65.48;99143.66;5054658;28;20044;-57
2021/07/28 01:50:07;;;;;;;21.88;8.63;;;;;;;18.46;65.27;99145.66;5054736;28;20535;-59
2021/07/28 01:52:34;;;;;;;14.45;7.72;;;;;;;18.55;65.10;99136.63;5053139;28;20387;-59
2021/07/28 01:55:01;;;;;;;14.45;8.32;;;;;;;18.70;64.52;99137.44;5054278;28;20051;-59
2021/07/28 01:57:26;;;;;;;18.25;8.63;;;;;;;18.80;64.23;99135.41;5054283;28;20041;-60
2021/07/28 01:59:52;;;;;;;20.02;8.38;;;;;;;18.92;63.81;99137.59;5054410;28;20514;-58
2021/07/28 02:02:18;;;;;;;17.33;8.18;;;;;;;19.05;63.30;99136.78;5054123;28;20587;-57
2021/07/28 02:04:44;;;;;;;15.02;8.48;;;;;;;19.13;62.83;99142.56;5054003;28;20127;-60
2021/07/28 02:07:09;;;;;;;14.82;8.05;;;;;;;19.16;62.88;99132.03;5054135;28;20090;-59
2021/07/28 02:09:35;;;;;;;27.52;9.85;;;;;;;19.06;62.96;99138.41;5052767;28;20449;-59
2021/07/28 02:12:01;;;;;;;22.13;9.95;;;;;;;19.05;63.31;99139.47;5053733;28;20048;-55
2021/07/28 02:14:27;;;;;;;16.95;8.35;;;;;;;19.21;62.69;99133.81;5051445;28;20041;-60
2021/07/28 02:16:52;;;;;;;17.13;8.32;;;;;;;19.43;62.00;99133.88;5053649;28;20115;-59
2021/07/28 02:19:18;;;;;;;19.52;9.05;;;;;;;19.62;61.46;99131.03;5054035;28;20044;-59
2021/07/28 02:21:44;;;;;;;14.50;8.15;;;;;;;19.79;61.13;99127.72;5053569;28;20052;-59
2021/07/28 02:24:10;;;;;;;16.58;8.23;;;;;;;20.01;60.21;99126.16;5054088;28;20098;-58
2021/07/28 02:26:35;;;;;;;19.50;8.43;;;;;;;20.24;59.49;99122.34;5052548;28;20045;-59
2021/07/28 02:29:01;;;;;;;20.65;8.90;;;;;;;20.40;58.87;99114.66;5053997;28;20067;-59
2021/07/28 02:31:27;;;;;;;14.85;8.45;;;;;;;20.63;58.16;99116.22;5052174;28;20535;-59
2021/07/28 02:33:52;;;;;;;16.40;8.40;;;;;;;20.90;57.36;99122.50;5053638;28;20131;-61
2021/07/28 02:36:18;;;;;;;16.20;8.75;;;;;;;20.96;56.98;99104.31;5053244;28;20049;-59
2021/07/28 02:38:44;;;;;;;16.60;8.02;;;;;;;21.08;56.72;99117.97;5052260;28;20048;-59
2021/07/28 02:41:10;;;;;;;17.40;7.90;;;;;;;21.02;56.88;99111.13;5053351;28;20563;-59
2021/07/28 02:43:35;;;;;;;16.83;8.45;;;;;;;20.96;57.08;99115.09;5053506;28;20045;-59
2021/07/28 02:46:01;;;;;;;18.23;8.38;;;;;;;20.95;57.30;99111.59;5053167;28;20041;-59
2021/07/28 02:48:27;;;;;;;15.02;8.65;;;;;;;21.09;56.83;99114.19;5053399;28;20049;-59
2021/07/28 02:50:53;;;;;;;17.58;8.63;;;;;;;21.18;56.58;99116.88;5053056;28;20525;-59
2021/07/28 02:53:21;;;;;;;15.90;9.00;;;;;;;21.25;56.35;99125.31;5053490;28;20036;-60
2021/07/28 02:55:46;;;;;;;12.50;8.90;;;;;;;21.23;56.47;99112.13;5053000;28;20187;-59
2021/07/28 02:58:12;;;;;;;15.52;8.98;;;;;;;21.19;56.60;99118.47;5053033;28;20123;-58
2021/07/28 03:00:38;;;;;;;16.10;9.50;;;;;;;21.18;56.45;99116.88;5051335;28;20142;-60
2021/07/28 03:03:05;;;;;;;14.15;9.13;;;;;;;21.10;56.67;99113.06;5051658;28;20033;-59
2021/07/28 03:05:30;;;;;;;13.10;8.40;;;;;;;21.16;56.87;99119.91;5052909;28;20052;-59
2021/07/28 03:07:56;;;;;;;19.30;9.82;;;;;;;21.25;56.51;99107.22;5052845;28;20033;-58
2021/07/28 03:10:22;;;;;;;19.52;10.85;;;;;;;21.50;55.94;99112.97;5053032;28;20040;-60
2021/07/28 03:12:47;;;;;;;16.67;9.75;;;;;;;21.70;55.45;99103.47;5052722;28;20041;-58
2021/07/28 03:15:13;;;;;;;18.17;11.40;;;;;;;21.99;54.48;99097.41;5052730;28;20139;-59
2021/07/28 03:17:39;;;;;;;17.63;10.48;;;;;;;22.17;54.15;99101.69;5052653;28;20084;-59
2021/07/28 03:20:05;;;;;;;17.80;10.25;;;;;;;22.36;53.41;99098.66;5035012;28;20056;-59
2021/07/28 03:22:31;;;;;;;18.50;9.30;;;;;;;22.38;53.09;99099.13;5052614;28;20068;-58
2021/07/28 03:24:57;;;;;;;20.75;10.05;;;;;;;22.44;53.07;99095.13;5052311;28;20541;-59
2021/07/28 03:27:23;;;;;;;19.83;9.63;;;;;;;22.37;53.61;99096.72;5052257;28;20519;-59
2021/07/28 03:29:49;;;;;;;21.88;10.25;;;;;;;22.27;53.73;99089.00;5052377;28;20049;-59
2021/07/28 03:32:14;;;;;;;16.75;9.63;;;;;;;22.37;53.49;99097.53;5051355;28;20045;-59
2021/07/28 03:34:40;;;;;;;19.10;9.65;;;;;;;22.52;53.26;99090.00;5052227;28;20477;-60
2021/07/28 03:37:06;;;;;;;23.92;9.57;;;;;;;22.79;52.50;99100.38;5050893;28;20063;-60
2021/07/28 03:39:32;;;;;;;23.77;9.43;;;;;;;23.05;52.16;99102.19;5052716;28;20051;-59
2021/07/28 03:41:58;;;;;;;20.50;9.90;;;;;;;23.33;51.42;99097.88;5052070;28;20071;-59
2021/07/28 03:44:23;;;;;;;20.92;9.95;;;;;;;23.44;51.36;99100.97;5052511;28;20489;-60
2021/07/28 03:46:49;;;;;;;18.60;10.38;;;;;;;23.38;51.52;99094.16;5052031;28;20053;-59
2021/07/28 03:49:15;;;;;;;16.27;10.00;;;;;;;23.47;50.81;99089.50;5050548;28;20091;-59
2021/07/28 03:51:40;;;;;;;19.75;10.43;;;;;;;23.44;50.97;99084.75;5051836;28;20498;-59
2021/07/28 03:54:06;;;;;;;20.45;11.57;;;;;;;23.52;50.83;99092.00;5050932;28;20041;-58
2021/07/28 03:56:32;;;;;;;18.80;9.65;;;;;;;23.67;50.96;99097.94;5050618;28;20399;-59
2021/07/28 03:58:58;;;;;;;20.42;10.30;;;;;;;23.91;50.21;99105.38;5050559;28;20045;-59
2021/07/28 04:01:24;;;;;;;20.55;10.90;;;;;;;24.09;50.01;99093.28;5052015;28;20499;-58
2021/07/28 04:03:50;;;;;;;28.00;13.55;;;;;;;24.24;49.37;99089.91;5051626;28;20414;-58
2021/07/28 04:06:16;;;;;;;29.90;16.17;;;;;;;24.34;49.24;99094.09;5051848;28;20075;-59
2021/07/28 04:08:42;;;;;;;20.73;13.73;;;;;;;24.28;49.27;99087.31;5051846;28;20064;-60
2021/07/28 04:11:08;;;;;;;29.70;14.82;;;;;;;24.29;49.09;99083.47;5050404;28;20529;-59
2021/07/28 04:13:33;;;;;;;33.92;16.00;;;;;;;24.31;48.92;99080.44;5033890;28;20044;-59
2021/07/28 04:15:59;;;;;;;25.95;16.05;;;;;;;24.31;49.22;99091.28;5033748;28;20044;-59
2021/07/28 04:18:25;;;;;;;33.17;17.70;;;;;;;24.42;49.17;99077.00;5051267;28;20518;-60
2021/07/28 04:20:51;;;;;;;29.33;15.98;;;;;;;24.62;48.85;99078.03;5051450;28;20053;-59
2021/07/28 04:23:16;;;;;;;25.40;15.00;;;;;;;24.89;48.15;99079.28;5050299;28;20045;-59
2021/07/28 04:25:42;;;;;;;34.20;15.40;;;;;;;25.18;47.39;99082.06;5051637;28;20041;-59
2021/07/28 04:28:08;;;;;;;25.00;14.50;;;;;;;25.56;46.12;99082.44;5051722;28;20045;-59
2021/07/28 04:30:34;;;;;;;28.88;15.80;;;;;;;25.98;45.38;99081.28;5051295;28;20041;-60
2021/07/28 04:33:00;;;;;;;27.23;15.07;;;;;;;26.14;44.83;99086.72;5050148;28;20127;-59
2021/07/28 04:35:26;;;;;;;26.42;13.68;;;;;;;25.93;45.86;99082.31;5051278;28;20052;-60
2021/07/28 04:37:51;;;;;;;29.00;15.27;;;;;;;26.06;45.38;99085.78;5050545;28;20044;-59
2021/07/28 04:40:17;;;;;;;28.02;14.45;;;;;;;26.24;44.90;99086.22;5051044;28;20057;-59
2021/07/28 04:42:43;;;;;;;22.88;14.35;;;;;;;26.44;44.80;99084.38;5051202;28;20131;-59
2021/07/28 04:45:09;;;;;;;30.30;14.05;;;;;;;26.52;44.41;99083.44;5051440;28;20047;-60
2021/07/28 04:47:35;;;;;;;34.30;14.38;;;;;;;26.57;44.13;99085.91;5049854;28;20049;-59
2021/07/28 04:50:01;;;;;;;20.75;12.30;;;;;;;26.83;44.46;99090.03;5049823;28;20058;-59
2021/07/28 04:52:27;;;;;;;20.65;10.95;;;;;;;27.02;44.49;99092.00;5051182;28;20043;-60
2021/07/28 04:54:53;;;;;;;23.52;11.18;;;;;;;27.09;44.53;99089.41;5049829;28;20541;-60
2021/07/28 04:57:19;;;;;;;18.27;11.07;;;;;;;26.98;44.38;99082.97;5049953;28;20080;-59
2021/07/28 04:59:45;;;;;;;19.17;10.70;;;;;;;26.91;44.15;99083.56;5050822;28;20052;-59
2021/07/28 05:02:11;;;;;;;22.20;11.40;;;;;;;26.79;44.41;99081.75;5050716;28;20040;-59
2021/07/28 05:04:37;;;;;;;20.85;11.68;;;;;;;26.71;44.87;99086.25;5050873;28;20053;-59
2021/07/28 05:07:02;;;;;;;22.58;11.85;;;;;;;26.65;44.21;99081.41;5050920;28;20037;-60
2021/07/28 05:09:28;;;;;;;17.85;11.40;;;;;;;26.71;44.41;99075.38;5050810;28;20418;-58
2021/07/28 05:11:54;;;;;;;18.63;11.52;;;;;;;26.93;44.08;99089.47;5050908;28;20048;-59
2021/07/28 05:14:20;;;;;;;23.98;11.10;;;;;;;27.07;43.54;99080.84;5051219;28;20480;-60
2021/07/28 05:16:45;;;;;;;22.05;11.10;;;;;;;27.14;43.13;99079.03;5050657;28;20069;-59
2021/07/28 05:19:11;;;;;;;23.10;11.73;;;;;;;27.18;43.18;99073.75;5051101;28;20044;-58
2021/07/28 05:21:37;;;;;;;26.63;11.88;;;;;;;27.19;43.07;99078.03;5050616;28;20045;-59
2021/07/28 05:24:03;;;;;;;18.23;11.50;;;;;;;27.10;43.35;99074.69;5050625;28;20052;-59
2021/07/28 05:26:29;;;;;;;22.40;12.27;;;;;;;26.80;43.49;99072.47;5051010;28;20052;-59
2021/07/28 05:28:56;;;;;;;17.98;12.25;;;;;;;26.58;44.38;99079.31;5051071;28;20036;-59
2021/07/28 05:31:22;;;;;;;25.23;11.95;;;;;;;26.45;44.91;99069.66;5050516;28;20515;-60
2021/07/28 05:33:48;;;;;;;18.02;11.60;;;;;;;26.33;44.91;99069.75;5050914;28;20049;-59
2021/07/28 05:36:13;;;;;;;20.38;11.68;;;;;;;26.15;45.55;99066.56;5050810;28;20045;-60
2021/07/28 05:38:39;;;;;;;23.83;12.00;;;;;;;25.88;45.59;99066.25;5032618;28;20502;-59
2021/07/28 05:41:05;;;;;;;22.75;12.38;;;;;;;25.71;46.35;99075.50;5048907;28;20056;-58
2021/07/28 05:43:31;;;;;;;19.63;11.85;;;;;;;25.50;46.78;99069.44;5032539;28;20033;-59
2021/07/28 05:45:57;;;;;;;20.83;12.43;;;;;;;25.34;47.54;99085.66;5049441;28;20086;-58
2021/07/28 05:48:22;;;;;;;20.17;12.25;;;;;;;25.13;48.09;99083.09;5050765;28;20041;-60
2021/07/28 05:50:51;;;;;;;22.77;12.82;;;;;;;24.93;48.65;99085.56;5052766;28;20053;-60
2021/07/28 05:53:17;;;;;;;21.53;12.30;;;;;;;24.84;49.72;99095.75;5054003;28;20037;-59
2021/07/28 05:55:43;;;;;;;16.75;11.85;;;;;;;24.84;49.56;99084.91;5054212;28;20072;-60
2021/07/28 05:58:09;;;;;;;16.88;11.80;;;;;;;24.79;49.27;99092.47;5053738;28;20037;-59
2021/07/28 06:00:36;;;;;;;19.77;11.40;;;;;;;24.72;48.57;99086.84;5052671;28;20130;-60
2021/07/28 06:03:02;;;;;;;15.27;11.50;;;;;;;24.73;48.83;99091.13;5046949;28;20036;-61
2021/07/28 06:05:28;;;;;;;20.30;11.98;;;;;;;24.68;49.22;99081.31;5033102;28;20136;-59
2021/07/28 06:07:54;;;;;;;15.13;11.27;;;;;;;24.53;49.59;99085.50;5033517;28;20131;-59
2021/07/28 06:10:20;;;;;;;21.02;11.82;;;;;;;24.50;49.57;99085.34;5032346;28;20118;-60
2021/07/28 06:12:46;;;;;;;20.58;11.68;;;;;;;24.53;49.68;99096.31;5032292;28;20045;-60
2021/07/28 06:15:12;;;;;;;22.92;13.30;;;;;;;24.49;50.04;99089.97;5033915;28;20052;-61
2021/07/28 06:17:38;;;;;;;17.90;11.05;;;;;;;24.48;49.87;99102.75;5032921;28;20061;-59
2021/07/28 06:20:04;;;;;;;17.30;9.90;;;;;;;24.39;49.58;99106.66;5033538;28;20052;-61
2021/07/28 06:22:30;;;;;;;15.93;9.80;;;;;;;24.18;49.50;99099.38;5033934;28;20119;-59
2021/07/28 06:24:56;;;;;;;14.75;9.30;;;;;;;24.11;50.25;99106.47;5032390;28;20503;-60
2021/07/28 06:27:22;;;;;;;13.23;9.70;;;;;;;24.08;50.19;99099.81;5033794;28;20132;-60
2021/07/28 06:29:48;;;;;;;12.18;9.43;;;;;;;24.01;50.24;99111.19;5027107;28;20100;-61
2021/07/28 06:32:13;;;;;;;14.75;9.52;;;;;;;23.91;50.20;99106.16;5027945;28;20389;-59
2021/07/28 06:34:39;;;;;;;13.95;9.60;;;;;;;23.88;50.72;99106.81;5032261;28;20041;-59
2021/07/28 06:37:08;;;;;;;18.25;9.25;;;;;;;23.76;50.78;99106.78;5031509;28;20511;-58
2021/07/28 06:39:34;;;;;;;14.80;8.63;;;;;;;23.78;50.67;99110.75;5030283;28;20053;-58
2021/07/28 06:41:59;;;;;;;14.02;8.43;;;;;;;23.74;50.33;99109.06;5031159;28;20037;-59
2021/07/28 06:44:25;;;;;;;11.75;8.38;;;;;;;23.65;51.01;99106.38;5031253;28;20381;-61
2021/07/28 06:46:51;;;;;;;14.90;9.48;;;;;;;23.65;50.48;99111.78;5029107;28;20076;-60
2021/07/28 06:49:17;;;;;;;13.15;8.20;;;;;;;23.55;51.42;99110.25;5030652;28;20069;-59
2021/07/28 06:51:43;;;;;;;14.52;8.80;;;;;;;23.50;51.54;99109.66;5029241;28;20057;-60
2021/07/28 06:54:09;;;;;;;11.85;8.85;;;;;;;23.48;51.98;99115.41;5028203;28;20491;-60
2021/07/28 06:56:34;;;;;;;13.60;9.07;;;;;;;23.30;52.15;99113.97;5028759;28;20037;-59
2021/07/28 06:59:00;;;;;;;12.13;8.23;;;;;;;23.13;52.87;99122.97;5041373;28;20052;-57
2021/07/28 07:01:26;;;;;;;14.27;8.80;;;;;;;23.09;52.77;99114.72;5049031;28;20443;-59
2021/07/28 07:03:52;;;;;;;10.38;8.05;;;;;;;23.00;53.62;99107.75;5047810;28;20453;-58
2021/07/28 07:06:18;;;;;;;13.68;8.95;;;;;;;22.97;53.96;99111.94;5047660;28;20051;-58
2021/07/28 07:08:43;;;;;;;15.82;9.02;;;;;;;22.92;54.29;99114.00;5048602;28;20045;-59
2021/07/28 07:11:09;;;;;;;12.23;8.40;;;;;;;22.86;54.84;99116.88;5046828;28;20059;-59
2021/07/28 07:13:36;;;;;;;18.05;8.95;;;;;;;22.85;54.86;99114.50;5046392;28;20049;-59
2021/07/28 07:16:02;;;;;;;11.63;8.02;;;;;;;22.78;55.47;99117.72;5047708;28;20052;-58
2021/07/28 07:18:28;;;;;;;12.20;7.95;;;;;;;22.73;55.64;99109.78;5048429;28;20061;-58
2021/07/28 07:20:54;;;;;;;12.25;8.65;;;;;;;22.77;55.94;99107.25;5047524;28;20531;-59
2021/07/28 07:23:19;;;;;;;13.20;8.38;;;;;;;22.82;56.15;99117.84;5047409;28;20555;-59
2021/07/28 07:25:45;;;;;;;11.68;8.45;;;;;;;22.82;55.75;99115.16;5049260;28;20044;-58
2021/07/28 07:28:11;;;;;;;15.85;9.30;;;;;;;22.73;56.38;99117.09;5049879;28;20044;-58
2021/07/28 07:30:37;;;;;;;15.32;9.15;;;;;;;22.65;57.15;99113.31;5049987;28;20049;-60
2021/07/28 07:35:47;;;;;;;11.80;8.68;;;;;;;22.68;57.44;99113.47;5049192;28;20084;-60
2021/07/28 07:38:13;;;;;;;10.32;8.82;;;;;;;22.69;57.74;99122.34;5047341;28;20434;-60
2021/07/28 07:40:39;;;;;;;12.88;8.50;;;;;;;22.76;58.51;99117.22;5048395;28;20053;-58
2021/07/28 07:43:11;;;;;;;13.20;9.32;;;;;;;22.77;59.46;99115.34;5046313;28;20052;-59
2021/07/28 07:45:37;;;;;;;12.63;9.05;;;;;;;22.72;59.42;99107.41;5049333;28;20079;-59
2021/07/28 07:48:04;;;;;;;12.30;9.45;;;;;;;22.68;59.77;99105.38;5048167;28;20049;-59
2021/07/28 07:50:35;;;;;;;12.55;9.90;;;;;;;22.61;61.08;99099.66;5049661;28;20127;-59
2021/07/28 07:53:04;;;;;;;11.65;8.80;;;;;;;22.65;61.18;99099.81;5048501;28;20518;-60
2021/07/28 07:55:30;;;;;;;14.50;9.60;;;;;;;22.62;61.39;99089.66;5049494;28;20087;-58
2021/07/28 07:57:57;;;;;;;12.43;8.85;;;;;;;22.74;60.70;99099.78;5048867;28;20104;-58
2021/07/28 08:00:23;;;;;;;17.02;8.88;;;;;;;22.79;60.81;99097.66;5048618;28;20423;-58
2021/07/28 08:02:49;;;;;;;12.52;8.75;;;;;;;22.91;60.99;99096.97;5049107;28;20053;-58
2021/07/28 08:05:15;;;;;;;13.77;9.18;;;;;;;23.06;60.18;99088.34;5047694;28;20399;-59
2021/07/28 08:07:41;;;;;;;15.85;9.18;;;;;;;23.21;59.89;99086.19;5046766;28;20051;-58
2021/07/28 08:10:07;;;;;;;11.23;8.88;;;;;;;23.39;59.49;99076.03;5049391;28;20044;-59
2021/07/28 08:12:36;;;;;;;12.68;9.20;;;;;;;23.47;58.90;99077.88;5047337;28;20094;-57
2021/07/28 08:15:03;;;;;;;14.50;9.40;;;;;;;23.57;59.19;99078.28;5048219;28;20072;-57
2021/07/28 08:17:30;;;;;;;11.98;9.07;;;;;;;23.69;59.02;99085.66;5048868;28;20048;-59
2021/07/28 08:19:56;;;;;;;10.70;8.38;;;;;;;23.83;58.76;99081.91;5028472;28;20059;-61
2021/07/28 08:22:22;;;;;;;11.52;8.52;;;;;;;23.94;59.02;99088.47;5045870;28;20047;-60
2021/07/28 08:24:48;;;;;;;12.75;8.77;;;;;;;23.97;58.66;99082.38;5045261;28;20057;-58
2021/07/28 08:27:14;;;;;;;13.20;9.65;;;;;;;24.06;58.53;99075.00;5043901;28;20033;-57
2021/07/28 08:29:40;;;;;;;17.50;9.10;;;;;;;24.17;58.14;99075.34;5046040;28;20045;-60
2021/07/28 08:32:07;;;;;;;12.18;9.27;;;;;;;24.34;57.77;99077.84;5042744;28;20143;-59
2021/07/28 08:34:52;;;;;;;10.82;9.30;;;;;;;24.45;56.72;99070.91;5045243;28;20609;-60
2021/07/28 08:37:28;;;;;;;10.68;9.32;;;;;;;24.61;57.13;99070.22;5046070;28;20044;-60
2021/07/28 08:39:54;;;;;;;14.55;9.25;;;;;;;24.70;56.99;99066.28;5048392;28;20740;-59
2021/07/28 08:42:20;;;;;;;12.77;8.25;;;;;;;24.77;54.83;99063.03;5027974;28;20044;-59
2021/07/28 08:44:47;;;;;;;16.25;10.43;;;;;;;24.51;54.36;99059.84;5045273;28;20179;-62
2021/07/28 08:47:13;;;;;;;10.07;8.35;;;;;;;24.38;55.06;99056.28;5045719;28;20146;-59
2021/07/28 08:49:39;;;;;;;14.32;8.48;;;;;;;24.20;55.21;99053.00;5045924;28;20124;-61
2021/07/28 08:52:05;;;;;;;12.80;9.07;;;;;;;24.07;55.80;99056.81;5044933;28;20623;-62
2021/07/28 08:54:31;;;;;;;15.05;9.80;;;;;;;24.01;56.26;99051.63;5048309;28;20124;-59
2021/07/28 08:56:58;;;;;;;14.02;9.55;;;;;;;24.05;55.79;99049.03;5045570;28;20143;-60
2021/07/28 08:59:24;;;;;;;11.75;9.57;;;;;;;24.10;55.90;99054.22;5046664;28;20045;-61
2021/07/28 09:01:50;;;;;;;12.95;10.35;;;;;;;24.16;56.38;99052.88;5045633;28;20079;-63
2021/07/28 09:04:16;;;;;;;13.13;9.75;;;;;;;24.13;56.32;99053.56;5047220;28;20040;-60
2021/07/28 09:06:42;;;;;;;14.30;10.45;;;;;;;24.13;56.25;99052.78;5046731;28;20155;-59
2021/07/28 09:09:08;;;;;;;12.40;9.98;;;;;;;24.26;55.46;99052.44;5044516;28;20054;-59
2021/07/28 09:11:34;;;;;;;12.55;9.93;;;;;;;24.24;56.14;99051.22;5043160;28;20538;-61
2021/07/28 09:14:18;;;;;;;11.52;9.48;;;;;;;24.19;56.02;99052.22;5047853;28;20099;-57
2021/07/28 09:16:43;;;;;;;15.50;10.80;;;;;;;24.22;55.81;99050.75;5045429;28;20168;-61
2021/07/28 09:19:09;;;;;;;13.70;10.63;;;;;;;24.10;55.94;99021.75;5045659;28;20132;-59
2021/07/28 09:21:35;;;;;;;11.75;9.90;;;;;;;24.41;55.25;99050.19;5047080;28;20060;-59
2021/07/28 09:24:13;;;;;;;12.48;9.95;;;;;;;24.39;55.52;99045.13;5049978;28;20033;-57
2021/07/28 09:26:50;;;;;;;14.20;9.77;;;;;;;24.39;55.70;99055.97;5050857;28;20136;-59
2021/07/28 09:29:18;;;;;;;11.50;9.48;;;;;;;24.35;55.37;99052.34;5051599;28;20106;-59
2021/07/28 09:32:17;;;;;;;13.18;10.73;;;;;;;24.34;55.79;99044.56;5050332;28;20055;-59
2021/07/28 09:34:43;;;;;;;12.53;9.93;;;;;;;24.38;54.99;99042.75;5052454;28;20044;-60
2021/07/28 09:37:11;;;;;;;10.73;9.48;;;;;;;24.36;54.86;99039.63;5051338;28;20037;-59
2021/07/28 09:39:39;;;;;;;12.80;9.25;;;;;;;24.40;53.95;99033.16;5049893;28;20053;-58
2021/07/28 09:42:13;;;;;;;12.75;9.35;;;;;;;24.56;53.56;99032.50;5017347;28;20445;-58
2021/07/28 09:44:41;;;;;;;11.23;9.00;;;;;;;24.70;54.35;99031.03;5050950;28;20048;-58
2021/07/28 09:47:19;;;;;;;10.93;8.77;;;;;;;24.85;53.21;99034.19;5051148;28;20576;-58
2021/07/28 09:49:50;;;;;;;13.40;9.20;;;;;;;24.84;53.58;99032.63;5043739;28;20049;-58
2021/07/28 09:52:21;;;;;;;17.40;9.30;;;;;;;24.72;53.89;99024.50;5030199;28;20502;-59
2021/07/28 09:54:48;;;;;;;22.75;11.20;;;;;;;24.68;54.26;99029.81;5013576;28;20088;-58
2021/07/28 09:57:20;;;;;;;13.70;10.23;;;;;;;24.62;54.93;99020.31;5031492;28;20041;-58
2021/07/28 09:59:52;;;;;;;13.70;10.73;;;;;;;24.64;54.52;99016.16;5032169;28;20577;-59
2021/07/28 10:02:38;;;;;;;15.10;11.98;;;;;;;24.76;54.50;99025.41;5030916;28;20083;-60
2021/07/28 10:05:04;;;;;;;13.18;10.90;;;;;;;24.72;54.23;99029.94;5031105;28;20037;-61
2021/07/28 10:07:31;;;;;;;13.23;10.07;;;;;;;24.60;54.34;99019.88;5029959;28;20537;-59
2021/07/28 10:10:05;;;;;;;11.55;9.02;;;;;;;24.62;53.33;99020.31;5029075;28;20688;-58
2021/07/28 10:12:34;;;;;;;15.43;9.27;;;;;;;24.60;53.37;99019.88;5027756;28;20045;-60
2021/07/28 10:15:00;;;;;;;12.48;9.32;;;;;;;24.63;53.53;99011.06;5013587;28;20049;-58
2021/07/28 10:17:26;;;;;;;12.55;10.35;;;;;;;24.61;53.66;99007.91;5013927;28;20103;-59
2021/07/28 10:19:52;;;;;;;14.05;10.75;;;;;;;24.67;53.95;99011.97;5014159;28;20049;-60
2021/07/28 10:22:19;;;;;;;18.33;11.13;;;;;;;24.72;54.11;99009.03;5029497;28;20596;-59
2021/07/28 10:24:46;;;;;;;16.15;10.10;;;;;;;24.79;53.16;99003.03;5029720;28;20048;-58
2021/07/28 10:27:12;;;;;;;13.63;10.45;;;;;;;24.76;53.05;99009.91;4996158;28;20529;-57
2021/07/28 10:29:38;;;;;;;20.08;9.15;;;;;;;24.71;52.22;99010.16;5012674;28;20045;-60
2021/07/28 10:32:05;;;;;;;11.48;8.45;;;;;;;24.62;52.79;99004.06;5012504;28;20096;-58
2021/07/28 10:34:36;;;;;;;17.25;8.70;;;;;;;24.71;52.59;99010.16;5027942;28;20097;-60
2021/07/28 10:37:07;;;;;;;18.77;8.98;;;;;;;24.75;52.54;98997.50;5026842;28;20529;-59
2021/07/28 10:39:46;;;;;;;14.57;8.30;;;;;;;24.70;51.84;98993.09;5012239;28;20053;-59
2021/07/28 10:42:21;;;;;;;15.75;8.50;;;;;;;24.68;51.49;98994.59;5011284;28;20672;-58
2021/07/28 10:45:01;;;;;;;18.85;8.40;;;;;;;24.68;51.65;98992.66;5032559;28;20053;-59
2021/07/28 10:47:45;;;;;;;20.48;9.60;;;;;;;24.67;52.04;98982.16;5037495;28;20045;-59
2021/07/28 10:50:25;;;;;;;12.02;8.88;;;;;;;24.62;52.14;98990.50;5031212;28;20045;-58
2021/07/28 10:53:02;;;;;;;13.38;8.80;;;;;;;24.53;52.51;98990.66;4995218;28;20478;-58
2021/07/28 10:55:31;;;;;;;9.60;8.60;;;;;;;24.47;52.64;98987.38;5013045;28;20045;-59
2021/07/28 10:58:07;;;;;;;12.40;8.85;;;;;;;24.34;51.52;98991.19;5027737;28;20498;-59
2021/07/28 11:00:39;;;;;;;16.42;9.10;;;;;;;24.25;52.38;98985.09;5029249;28;20061;-58
2021/07/28 11:03:12;;;;;;;12.25;9.20;;;;;;;24.26;52.75;98982.03;5044861;28;20460;-59
2021/07/28 11:05:40;;;;;;;15.70;8.93;;;;;;;24.20;52.82;98980.66;5047592;28;20053;-59
2021/07/28 11:08:05;;;;;;;15.88;8.60;;;;;;;24.17;53.01;98970.50;5046783;28;20048;-60
2021/07/28 11:10:37;;;;;;;12.13;8.32;;;;;;;24.10;53.21;98974.94;5047388;28;20057;-59
2021/07/28 11:13:06;;;;;;;15.95;8.70;;;;;;;23.95;53.81;98966.34;5047485;28;20072;-61
2021/07/28 11:15:33;;;;;;;14.98;10.90;;;;;;;23.93;54.40;98957.75;5050065;28;20418;-61
2021/07/28 11:17:59;;;;;;;22.48;11.00;;;;;;;23.99;54.94;98961.03;5040857;28;20056;-61
2021/07/28 11:20:38;;;;;;;17.15;11.32;;;;;;;24.01;54.73;98950.66;5048892;28;20094;-60
2021/07/28 11:23:27;;;;;;;13.63;10.20;;;;;;;24.03;54.93;98951.09;5049216;28;20059;-59
2021/07/28 11:25:55;;;;;;;17.48;10.43;;;;;;;24.08;54.54;98950.88;5030627;28;20059;-60
2021/07/28 11:28:22;;;;;;;12.80;8.82;;;;;;;24.08;52.94;98952.81;5047168;28;20106;-59
2021/07/28 11:31:00;;;;;;;12.20;8.20;;;;;;;24.05;53.13;98942.66;5031611;28;20080;-60